Navios Pollux — 3FPO2 — position and weather

sailwx.info

Track history (hours):
 
Tides and Currents Weather Stations Pressure Air Temp Water Temp Dewpoint Dewpoint Depression Visibility Wind Speed Wind Dir Waves Ship Positions

Navios Pollux

Last reported at 2017-Nov-19 17:39 UTC. Time now 2017-Nov-21 04:47 UTC.
Position N 34°51' W 007°28'.

Length 292 m; draft 18.2 m.

Type: Cargo ship. MMSI: 370290000.

Date/timePositionNaut miles runAvg speedWind from/ knotsBaromVisibWave heightAir tempDewpointWater temp
2017-Nov-19 17:39N 34°51' W 007°28'44812.2
2017-Nov-18 04:53N 29°52' W 014°03'2612.1
2017-Nov-18 02:42N 29°34' W 014°26'212.1
2017-Nov-18 02:30N 29°32' W 014°28'612.2
2017-Nov-18 02:00N 29°28' W 014°33'812.3
2017-Nov-18 01:21N 29°23' W 014°40'512.4
2017-Nov-18 00:59N 29°20' W 014°44'1212.4
2017-Nov-18 00:00N 29°12' W 014°54'612.5
2017-Nov-17 23:30N 29°08' W 014°59'712.7
2017-Nov-17 22:57N 29°03' W 015°05'612.8
2017-Nov-17 22:28N 28°59' W 015°11'612.8
2017-Nov-17 22:00N 28°55' W 015°16'612.7
2017-Nov-17 21:30N 28°51' W 015°21'612.7
2017-Nov-17 21:00N 28°46' W 015°26'612.7
2017-Nov-17 20:30N 28°42' W 015°32'612.7
2017-Nov-17 20:00N 28°38' W 015°37'612.4
2017-Nov-17 19:30N 28°33' W 015°42'612.4
2017-Nov-17 19:00N 28°28' W 015°46'612.3
2017-Nov-17 18:30N 28°23' W 015°50'612.1
2017-Nov-17 18:00N 28°19' W 015°55'612.4
2017-Nov-17 17:30N 28°15' W 016°00'  
Track history (hours):
 
Tides and Currents Weather Stations Pressure Air Temp Water Temp Dewpoint Dewpoint Depression Visibility Wind Speed Wind Dir Waves Ship Positions

Navios Pollux

Last reported at 2017-Nov-19 17:39 UTC. Time now 2017-Nov-21 04:47 UTC.
Position N 34°51' W 007°28'.

Length 292 m; draft 18.2 m.

Type: Cargo ship. MMSI: 370290000.

Date/timePositionNaut miles runAvg speedWind from/ knotsBaromVisibWave heightAir tempDewpointWater temp
2017-Nov-19 17:39N 34°51' W 007°28'44812.2
2017-Nov-18 04:53N 29°52' W 014°03'2612.1
2017-Nov-18 02:42N 29°34' W 014°26'212.1
2017-Nov-18 02:30N 29°32' W 014°28'612.2
2017-Nov-18 02:00N 29°28' W 014°33'812.3
2017-Nov-18 01:21N 29°23' W 014°40'512.4
2017-Nov-18 00:59N 29°20' W 014°44'1212.4
2017-Nov-18 00:00N 29°12' W 014°54'612.5
2017-Nov-17 23:30N 29°08' W 014°59'712.7
2017-Nov-17 22:57N 29°03' W 015°05'612.8
2017-Nov-17 22:28N 28°59' W 015°11'612.8
2017-Nov-17 22:00N 28°55' W 015°16'612.7
2017-Nov-17 21:30N 28°51' W 015°21'612.7
2017-Nov-17 21:00N 28°46' W 015°26'612.7
2017-Nov-17 20:30N 28°42' W 015°32'612.7
2017-Nov-17 20:00N 28°38' W 015°37'612.4
2017-Nov-17 19:30N 28°33' W 015°42'612.4
2017-Nov-17 19:00N 28°28' W 015°46'612.3
2017-Nov-17 18:30N 28°23' W 015°50'612.1
2017-Nov-17 18:00N 28°19' W 015°55'612.4
2017-Nov-17 17:30N 28°15' W 016°00'  

Dump ship's entire track history